sensor_id;sensor_type;location;lat;lon;timestamp;pressure;altitude;pressure_sealevel;temperature;humidity
11523;BME280;70090;43.208;27.904;2023-07-29T00:02:02;100698.72;;;22.55;100.00
11523;BME280;70090;43.208;27.904;2023-07-29T00:04:30;100697.56;;;22.65;100.00
11523;BME280;70090;43.208;27.904;2023-07-29T00:06:57;100683.78;;;22.46;100.00
11523;BME280;70090;43.208;27.904;2023-07-29T00:09:23;100678.41;;;22.51;100.00
11523;BME280;70090;43.208;27.904;2023-07-29T00:11:50;100687.16;;;22.53;100.00
11523;BME280;70090;43.208;27.904;2023-07-29T00:14:17;100681.34;;;22.48;100.00
11523;BME280;70090;43.208;27.904;2023-07-29T00:16:45;100680.88;;;22.37;100.00
11523;BME280;70090;43.208;27.904;2023-07-29T00:19:12;100654.75;;;22.27;100.00
11523;BME280;70090;43.208;27.904;2023-07-29T00:21:39;100676.97;;;22.22;100.00
11523;BME280;70090;43.208;27.904;2023-07-29T00:24:06;100664.41;;;22.26;100.00
11523;BME280;70090;43.208;27.904;2023-07-29T00:26:33;100690.44;;;22.27;100.00
11523;BME280;70090;43.208;27.904;2023-07-29T00:29:00;100683.94;;;21.92;100.00
11523;BME280;70090;43.208;27.904;2023-07-29T00:31:27;100678.34;;;21.67;100.00
11523;BME280;70090;43.208;27.904;2023-07-29T00:33:56;100675.00;;;21.44;100.00
11523;BME280;70090;43.208;27.904;2023-07-29T00:36:23;100673.50;;;21.14;100.00
11523;BME280;70090;43.208;27.904;2023-07-29T00:38:50;100666.03;;;20.95;100.00
11523;BME280;70090;43.208;27.904;2023-07-29T00:41:18;100674.97;;;20.74;100.00
11523;BME280;70090;43.208;27.904;2023-07-29T00:43:46;100663.50;;;20.85;100.00
11523;BME280;70090;43.208;27.904;2023-07-29T00:46:13;100661.16;;;20.83;100.00
11523;BME280;70090;43.208;27.904;2023-07-29T00:48:40;100656.41;;;20.80;100.00
11523;BME280;70090;43.208;27.904;2023-07-29T00:51:08;100654.97;;;20.76;100.00
11523;BME280;70090;43.208;27.904;2023-07-29T00:53:35;100657.34;;;20.61;100.00
11523;BME280;70090;43.208;27.904;2023-07-29T00:56:03;100651.75;;;20.61;100.00
11523;BME280;70090;43.208;27.904;2023-07-29T00:58:30;100662.06;;;20.64;100.00
11523;BME280;70090;43.208;27.904;2023-07-29T01:00:57;100653.56;;;20.68;100.00
11523;BME280;70090;43.208;27.904;2023-07-29T01:03:24;100652.25;;;20.72;100.00
11523;BME280;70090;43.208;27.904;2023-07-29T01:06:01;100653.03;;;20.73;100.00
11523;BME280;70090;43.208;27.904;2023-07-29T01:08:40;100656.47;;;20.64;100.00
11523;BME280;70090;43.208;27.904;2023-07-29T01:11:22;100651.06;;;20.57;100.00
11523;BME280;70090;43.208;27.904;2023-07-29T01:14:00;100645.28;;;20.48;100.00
11523;BME280;70090;43.208;27.904;2023-07-29T01:16:33;100641.91;;;20.41;100.00
11523;BME280;70090;43.208;27.904;2023-07-29T01:19:05;100642.88;;;20.34;100.00
11523;BME280;70090;43.208;27.904;2023-07-29T01:21:35;100643.75;;;20.32;100.00
11523;BME280;70090;43.208;27.904;2023-07-29T01:24:04;100641.69;;;20.20;100.00
11523;BME280;70090;43.208;27.904;2023-07-29T01:26:31;100642.53;;;20.17;100.00
11523;BME280;70090;43.208;27.904;2023-07-29T01:28:58;100635.91;;;20.11;100.00
11523;BME280;70090;43.208;27.904;2023-07-29T01:31:30;100635.69;;;20.02;100.00
11523;BME280;70090;43.208;27.904;2023-07-29T01:34:13;100638.31;;;19.93;100.00
11523;BME280;70090;43.208;27.904;2023-07-29T01:36:45;100632.19;;;19.82;100.00
11523;BME280;70090;43.208;27.904;2023-07-29T01:39:14;100629.22;;;19.73;100.00
11523;BME280;70090;43.208;27.904;2023-07-29T01:41:43;100630.09;;;19.70;100.00
11523;BME280;70090;43.208;27.904;2023-07-29T01:44:10;100617.00;;;19.67;100.00
11523;BME280;70090;43.208;27.904;2023-07-29T01:46:38;100633.06;;;19.79;100.00
11523;BME280;70090;43.208;27.904;2023-07-29T01:49:05;100634.56;;;19.83;100.00
11523;BME280;70090;43.208;27.904;2023-07-29T01:51:32;100629.59;;;19.91;100.00
11523;BME280;70090;43.208;27.904;2023-07-29T01:53:58;100636.25;;;19.97;100.00
11523;BME280;70090;43.208;27.904;2023-07-29T01:56:27;100631.34;;;20.01;100.00
11523;BME280;70090;43.208;27.904;2023-07-29T01:58:53;100636.50;;;20.02;100.00
11523;BME280;70090;43.208;27.904;2023-07-29T02:01:20;100615.78;;;19.84;100.00
11523;BME280;70090;43.208;27.904;2023-07-29T02:03:47;100625.72;;;19.85;100.00
11523;BME280;70090;43.208;27.904;2023-07-29T02:06:20;100629.06;;;19.80;100.00
11523;BME280;70090;43.208;27.904;2023-07-29T02:08:46;100638.50;;;19.86;100.00
11523;BME280;70090;43.208;27.904;2023-07-29T02:11:13;100651.06;;;19.94;100.00
11523;BME280;70090;43.208;27.904;2023-07-29T02:13:42;100641.72;;;20.00;100.00
11523;BME280;70090;43.208;27.904;2023-07-29T02:16:09;100642.00;;;20.06;100.00
11523;BME280;70090;43.208;27.904;2023-07-29T02:18:36;100637.06;;;20.13;100.00
11523;BME280;70090;43.208;27.904;2023-07-29T02:21:03;100641.34;;;20.18;100.00
11523;BME280;70090;43.208;27.904;2023-07-29T02:23:30;100638.53;;;20.18;100.00
11523;BME280;70090;43.208;27.904;2023-07-29T02:26:09;100630.50;;;20.20;100.00
11523;BME280;70090;43.208;27.904;2023-07-29T06:02:07;100711.63;;;23.42;100.00
11523;BME280;70090;43.208;27.904;2023-07-29T06:04:35;100710.78;;;23.54;100.00
11523;BME280;70090;43.208;27.904;2023-07-29T06:07:02;100711.81;;;23.69;100.00
11523;BME280;70090;43.208;27.904;2023-07-29T06:09:28;100710.03;;;23.62;100.00
11523;BME280;70090;43.208;27.904;2023-07-29T06:11:55;100711.75;;;23.60;100.00
11523;BME280;70090;43.208;27.904;2023-07-29T06:14:22;100701.66;;;23.71;100.00
11523;BME280;70090;43.208;27.904;2023-07-29T06:16:49;100707.28;;;23.93;100.00
11523;BME280;70090;43.208;27.904;2023-07-29T06:19:17;100712.97;;;24.11;100.00
11523;BME280;70090;43.208;27.904;2023-07-29T06:21:44;100709.31;;;23.92;100.00
11523;BME280;70090;43.208;27.904;2023-07-29T06:24:11;100707.38;;;24.20;100.00
11523;BME280;70090;43.208;27.904;2023-07-29T06:26:38;100711.34;;;24.31;100.00
11523;BME280;70090;43.208;27.904;2023-07-29T06:29:05;100709.00;;;24.39;100.00
11523;BME280;70090;43.208;27.904;2023-07-29T06:31:32;100706.53;;;24.50;100.00
11523;BME280;70090;43.208;27.904;2023-07-29T06:33:59;100710.44;;;24.43;100.00
11523;BME280;70090;43.208;27.904;2023-07-29T06:36:27;100706.78;;;24.25;100.00
11523;BME280;70090;43.208;27.904;2023-07-29T06:38:54;100706.50;;;24.41;100.00
11523;BME280;70090;43.208;27.904;2023-07-29T06:41:21;100708.78;;;24.55;100.00
11523;BME280;70090;43.208;27.904;2023-07-29T06:43:48;100701.19;;;24.43;98.37
11523;BME280;70090;43.208;27.904;2023-07-29T06:46:15;100712.53;;;24.61;99.18
11523;BME280;70090;43.208;27.904;2023-07-29T06:48:41;100707.69;;;24.79;98.03
11523;BME280;70090;43.208;27.904;2023-07-29T06:51:08;100717.56;;;24.93;97.56
11523;BME280;70090;43.208;27.904;2023-07-29T06:53:36;100717.25;;;24.91;93.54
11523;BME280;70090;43.208;27.904;2023-07-29T06:56:03;100723.50;;;24.86;93.52
11523;BME280;70090;43.208;27.904;2023-07-29T06:58:30;100712.88;;;24.81;94.34
11523;BME280;70090;43.208;27.904;2023-07-29T07:00:57;100714.91;;;24.98;95.69
11523;BME280;70090;43.208;27.904;2023-07-29T07:03:24;100711.16;;;24.74;93.89
11523;BME280;70090;43.208;27.904;2023-07-29T07:05:51;100713.50;;;24.76;95.52
11523;BME280;70090;43.208;27.904;2023-07-29T07:08:18;100711.94;;;24.84;95.75
11523;BME280;70090;43.208;27.904;2023-07-29T07:10:46;100711.97;;;25.11;95.07
11523;BME280;70090;43.208;27.904;2023-07-29T07:13:13;100714.28;;;25.12;89.36
11523;BME280;70090;43.208;27.904;2023-07-29T07:15:40;100706.78;;;25.18;93.30
11523;BME280;70090;43.208;27.904;2023-07-29T07:18:07;100717.78;;;25.34;91.03
11523;BME280;70090;43.208;27.904;2023-07-29T07:20:34;100711.66;;;25.36;91.20
11523;BME280;70090;43.208;27.904;2023-07-29T07:23:02;100716.31;;;25.39;86.57
11523;BME280;70090;43.208;27.904;2023-07-29T07:25:30;100723.19;;;25.65;85.43
11523;BME280;70090;43.208;27.904;2023-07-29T07:27:59;100730.56;;;25.44;82.30
11523;BME280;70090;43.208;27.904;2023-07-29T07:30:25;100718.81;;;25.64;81.28
11523;BME280;70090;43.208;27.904;2023-07-29T07:32:52;100714.09;;;25.70;81.74
11523;BME280;70090;43.208;27.904;2023-07-29T07:35:19;100717.97;;;25.90;80.93
11523;BME280;70090;43.208;27.904;2023-07-29T07:37:46;100712.59;;;26.10;79.10
11523;BME280;70090;43.208;27.904;2023-07-29T07:40:13;100711.75;;;26.18;76.08
11523;BME280;70090;43.208;27.904;2023-07-29T07:42:40;100706.53;;;26.26;76.93
11523;BME280;70090;43.208;27.904;2023-07-29T07:45:08;100716.06;;;26.37;75.22
11523;BME280;70090;43.208;27.904;2023-07-29T07:47:35;100716.47;;;26.45;69.43
11523;BME280;70090;43.208;27.904;2023-07-29T07:50:02;100709.41;;;26.49;66.21
11523;BME280;70090;43.208;27.904;2023-07-29T07:52:29;100699.38;;;26.48;66.99
11523;BME280;70090;43.208;27.904;2023-07-29T07:54:56;100703.06;;;26.63;67.68
11523;BME280;70090;43.208;27.904;2023-07-29T07:57:23;100699.50;;;26.77;66.45
11523;BME280;70090;43.208;27.904;2023-07-29T07:59:49;100693.59;;;26.43;60.09
11523;BME280;70090;43.208;27.904;2023-07-29T08:02:19;100688.88;;;26.72;59.43
11523;BME280;70090;43.208;27.904;2023-07-29T08:04:46;100690.13;;;26.95;58.25
11523;BME280;70090;43.208;27.904;2023-07-29T08:07:13;100684.66;;;26.91;58.14
11523;BME280;70090;43.208;27.904;2023-07-29T08:09:40;100687.03;;;27.07;56.23
11523;BME280;70090;43.208;27.904;2023-07-29T08:12:07;100677.34;;;27.23;54.01
11523;BME280;70090;43.208;27.904;2023-07-29T08:14:34;100676.56;;;27.22;53.98
11523;BME280;70090;43.208;27.904;2023-07-29T08:17:01;100674.25;;;27.35;49.84
11523;BME280;70090;43.208;27.904;2023-07-29T08:19:29;100668.56;;;27.21;49.91
11523;BME280;70090;43.208;27.904;2023-07-29T08:21:56;100669.47;;;27.56;48.36
11523;BME280;70090;43.208;27.904;2023-07-29T08:24:23;100662.44;;;27.66;45.87
11523;BME280;70090;43.208;27.904;2023-07-29T08:26:50;100672.91;;;27.74;46.58
11523;BME280;70090;43.208;27.904;2023-07-29T08:29:17;100667.41;;;27.71;41.04
11523;BME280;70090;43.208;27.904;2023-07-29T08:31:44;100655.22;;;27.65;43.21
11523;BME280;70090;43.208;27.904;2023-07-29T08:34:11;100655.13;;;27.88;41.10
11523;BME280;70090;43.208;27.904;2023-07-29T08:36:39;100649.66;;;27.99;37.22
11523;BME280;70090;43.208;27.904;2023-07-29T08:39:06;100642.84;;;27.91;37.96
11523;BME280;70090;43.208;27.904;2023-07-29T08:41:37;100636.56;;;28.02;39.95
11523;BME280;70090;43.208;27.904;2023-07-29T08:44:10;100632.34;;;28.32;42.52
11523;BME280;70090;43.208;27.904;2023-07-29T08:46:39;100627.81;;;28.54;41.71
11523;BME280;70090;43.208;27.904;2023-07-29T08:49:06;100630.41;;;28.38;43.47
11523;BME280;70090;43.208;27.904;2023-07-29T08:51:34;100614.63;;;28.71;43.39
11523;BME280;70090;43.208;27.904;2023-07-29T08:54:03;100618.84;;;29.01;43.49
11523;BME280;70090;43.208;27.904;2023-07-29T08:56:30;100614.97;;;29.24;46.41
11523;BME280;70090;43.208;27.904;2023-07-29T08:58:58;100609.81;;;29.22;47.50
11523;BME280;70090;43.208;27.904;2023-07-29T09:01:27;100604.28;;;29.39;48.68
11523;BME280;70090;43.208;27.904;2023-07-29T09:03:56;100600.09;;;29.60;49.53
11523;BME280;70090;43.208;27.904;2023-07-29T09:06:23;100602.66;;;29.89;48.35
11523;BME280;70090;43.208;27.904;2023-07-29T09:08:51;100597.41;;;30.13;47.94
11523;BME280;70090;43.208;27.904;2023-07-29T09:11:23;100595.97;;;30.34;50.69
11523;BME280;70090;43.208;27.904;2023-07-29T09:13:50;100593.94;;;30.40;50.90
11523;BME280;70090;43.208;27.904;2023-07-29T09:16:18;100591.94;;;30.57;51.02
11523;BME280;70090;43.208;27.904;2023-07-29T09:18:48;100591.25;;;30.73;48.52
11523;BME280;70090;43.208;27.904;2023-07-29T09:21:16;100584.81;;;30.83;48.65
11523;BME280;70090;43.208;27.904;2023-07-29T09:23:44;100590.25;;;30.92;49.06
11523;BME280;70090;43.208;27.904;2023-07-29T09:26:11;100590.28;;;31.03;48.09
11523;BME280;70090;43.208;27.904;2023-07-29T09:28:40;100588.50;;;31.11;48.35
11523;BME280;70090;43.208;27.904;2023-07-29T09:31:18;100581.81;;;31.20;50.87
11523;BME280;70090;43.208;27.904;2023-07-29T09:33:45;100583.63;;;31.34;50.02
11523;BME280;70090;43.208;27.904;2023-07-29T09:36:13;100583.91;;;31.36;47.51
11523;BME280;70090;43.208;27.904;2023-07-29T09:38:42;100586.47;;;31.45;48.66
11523;BME280;70090;43.208;27.904;2023-07-29T09:41:12;100585.44;;;31.58;50.13
11523;BME280;70090;43.208;27.904;2023-07-29T09:43:40;100580.28;;;31.73;50.02
11523;BME280;70090;43.208;27.904;2023-07-29T09:46:07;100573.81;;;31.78;48.54
11523;BME280;70090;43.208;27.904;2023-07-29T09:48:35;100567.31;;;31.83;47.95
11523;BME280;70090;43.208;27.904;2023-07-29T09:51:09;100575.84;;;31.89;49.06
11523;BME280;70090;43.208;27.904;2023-07-29T09:53:40;100582.31;;;32.00;50.17
11523;BME280;70090;43.208;27.904;2023-07-29T09:56:07;100576.59;;;32.11;50.00
11523;BME280;70090;43.208;27.904;2023-07-29T09:58:34;100579.69;;;32.13;47.91
11523;BME280;70090;43.208;27.904;2023-07-29T10:01:05;100577.31;;;32.28;48.80
11523;BME280;70090;43.208;27.904;2023-07-29T10:03:33;100581.97;;;32.15;46.22
11523;BME280;70090;43.208;27.904;2023-07-29T10:06:01;100587.19;;;32.11;48.95
11523;BME280;70090;43.208;27.904;2023-07-29T10:08:29;100580.50;;;31.86;50.00
11523;BME280;70090;43.208;27.904;2023-07-29T10:10:58;100581.31;;;31.76;51.28
11523;BME280;70090;43.208;27.904;2023-07-29T10:13:26;100583.59;;;31.66;52.06
11523;BME280;70090;43.208;27.904;2023-07-29T10:15:53;100587.25;;;31.61;53.60
11523;BME280;70090;43.208;27.904;2023-07-29T10:18:23;100577.44;;;31.73;54.09
11523;BME280;70090;43.208;27.904;2023-07-29T10:20:51;100573.81;;;31.73;52.78
11523;BME280;70090;43.208;27.904;2023-07-29T10:23:18;100571.22;;;31.64;53.68
11523;BME280;70090;43.208;27.904;2023-07-29T10:25:47;100569.38;;;31.66;58.55
11523;BME280;70090;43.208;27.904;2023-07-29T10:28:17;100576.66;;;31.78;60.50
11523;BME280;70090;43.208;27.904;2023-07-29T10:30:46;100573.50;;;31.87;59.43
11523;BME280;70090;43.208;27.904;2023-07-29T10:33:14;100589.81;;;31.98;57.93
11523;BME280;70090;43.208;27.904;2023-07-29T10:35:42;100581.00;;;32.01;57.99
11523;BME280;70090;43.208;27.904;2023-07-29T10:38:09;100580.22;;;32.01;58.22
11523;BME280;70090;43.208;27.904;2023-07-29T10:40:46;100582.59;;;31.91;55.93
11523;BME280;70090;43.208;27.904;2023-07-29T10:43:19;100582.56;;;31.97;55.33
11523;BME280;70090;43.208;27.904;2023-07-29T10:45:46;100580.03;;;31.71;56.41
11523;BME280;70090;43.208;27.904;2023-07-29T10:48:39;100578.72;;;31.23;64.26
11523;BME280;70090;43.208;27.904;2023-07-29T10:51:27;100578.63;;;30.90;65.97
11523;BME280;70090;43.208;27.904;2023-07-29T10:53:56;100577.47;;;30.55;66.15
11523;BME280;70090;43.208;27.904;2023-07-29T10:56:30;100568.78;;;30.16;70.26
11523;BME280;70090;43.208;27.904;2023-07-29T10:58:59;100572.22;;;29.95;73.64
11523;BME280;70090;43.208;27.904;2023-07-29T11:01:29;100575.81;;;29.90;74.32
11523;BME280;70090;43.208;27.904;2023-07-29T11:04:22;100573.00;;;29.90;72.24
11523;BME280;70090;43.208;27.904;2023-07-29T11:07:24;100576.28;;;29.83;73.68
11523;BME280;70090;43.208;27.904;2023-07-29T11:10:02;100581.09;;;29.66;74.25
11523;BME280;70090;43.208;27.904;2023-07-29T11:12:37;100580.59;;;29.73;77.10
11523;BME280;70090;43.208;27.904;2023-07-29T11:15:07;100581.88;;;29.72;76.94
11523;BME280;70090;43.208;27.904;2023-07-29T11:17:40;100574.59;;;29.60;77.04
11523;BME280;70090;43.208;27.904;2023-07-29T11:20:07;100581.63;;;29.70;77.39
11523;BME280;70090;43.208;27.904;2023-07-29T11:22:37;100585.09;;;29.90;77.08
11523;BME280;70090;43.208;27.904;2023-07-29T11:25:05;100576.09;;;29.92;74.55
11523;BME280;70090;43.208;27.904;2023-07-29T11:27:32;100574.06;;;29.98;75.94
11523;BME280;70090;43.208;27.904;2023-07-29T11:29:59;100576.63;;;29.96;75.40
11523;BME280;70090;43.208;27.904;2023-07-29T11:32:27;100575.84;;;29.95;75.30
11523;BME280;70090;43.208;27.904;2023-07-29T11:34:54;100572.63;;;30.08;76.86
11523;BME280;70090;43.208;27.904;2023-07-29T11:37:21;100566.94;;;30.08;76.92
11523;BME280;70090;43.208;27.904;2023-07-29T11:39:50;100573.66;;;30.16;76.93
11523;BME280;70090;43.208;27.904;2023-07-29T11:42:16;100569.50;;;30.11;76.50
11523;BME280;70090;43.208;27.904;2023-07-29T11:44:43;100567.50;;;30.17;77.22
11523;BME280;70090;43.208;27.904;2023-07-29T11:47:12;100561.88;;;30.34;76.30
11523;BME280;70090;43.208;27.904;2023-07-29T11:49:40;100555.78;;;30.52;75.80
11523;BME280;70090;43.208;27.904;2023-07-29T11:52:08;100554.81;;;30.71;74.05
11523;BME280;70090;43.208;27.904;2023-07-29T11:54:35;100561.81;;;30.81;70.89
11523;BME280;70090;43.208;27.904;2023-07-29T11:57:06;100554.38;;;30.95;67.79
11523;BME280;70090;43.208;27.904;2023-07-29T11:59:33;100550.50;;;31.03;65.15
11523;BME280;70090;43.208;27.904;2023-07-29T12:02:01;100554.66;;;31.19;63.93
11523;BME280;70090;43.208;27.904;2023-07-29T12:04:28;100539.63;;;31.07;59.06
11523;BME280;70090;43.208;27.904;2023-07-29T12:06:56;100545.53;;;30.93;58.21
11523;BME280;70090;43.208;27.904;2023-07-29T12:09:25;100552.03;;;31.04;58.54
11523;BME280;70090;43.208;27.904;2023-07-29T12:11:53;100542.25;;;31.38;56.37
11523;BME280;70090;43.208;27.904;2023-07-29T12:14:22;100551.56;;;31.71;56.57
11523;BME280;70090;43.208;27.904;2023-07-29T12:16:51;100541.69;;;31.94;56.05
11523;BME280;70090;43.208;27.904;2023-07-29T12:19:19;100539.56;;;32.17;54.00
11523;BME280;70090;43.208;27.904;2023-07-29T12:21:48;100539.81;;;32.13;53.24
11523;BME280;70090;43.208;27.904;2023-07-29T12:24:15;100551.47;;;32.10;52.91
11523;BME280;70090;43.208;27.904;2023-07-29T12:26:42;100551.47;;;32.10;52.37
11523;BME280;70090;43.208;27.904;2023-07-29T12:29:12;100546.56;;;32.10;51.83
11523;BME280;70090;43.208;27.904;2023-07-29T12:31:41;100549.63;;;32.18;51.29
11523;BME280;70090;43.208;27.904;2023-07-29T12:34:08;100557.38;;;32.28;51.88
11523;BME280;70090;43.208;27.904;2023-07-29T12:36:42;100559.25;;;32.04;48.04
11523;BME280;70090;43.208;27.904;2023-07-29T12:39:17;100560.53;;;32.08;48.73
11523;BME280;70090;43.208;27.904;2023-07-29T12:41:44;100549.47;;;31.61;48.38
11523;BME280;70090;43.208;27.904;2023-07-29T12:44:11;100550.25;;;31.61;49.46
11523;BME280;70090;43.208;27.904;2023-07-29T12:46:38;100548.69;;;31.82;48.40
11523;BME280;70090;43.208;27.904;2023-07-29T12:49:06;100552.84;;;31.81;47.43
11523;BME280;70090;43.208;27.904;2023-07-29T12:51:33;100555.16;;;31.94;48.06
11523;BME280;70090;43.208;27.904;2023-07-29T12:54:01;100548.66;;;31.93;46.39
11523;BME280;70090;43.208;27.904;2023-07-29T12:56:28;100548.41;;;32.02;46.74
11523;BME280;70090;43.208;27.904;2023-07-29T12:58:56;100551.25;;;32.02;47.61
11523;BME280;70090;43.208;27.904;2023-07-29T13:01:23;100554.34;;;32.04;46.99
11523;BME280;70090;43.208;27.904;2023-07-29T13:03:50;100545.25;;;32.11;46.69
11523;BME280;70090;43.208;27.904;2023-07-29T13:06:18;100559.81;;;31.91;46.34
11523;BME280;70090;43.208;27.904;2023-07-29T13:08:46;100550.78;;;31.22;48.43
11523;BME280;70090;43.208;27.904;2023-07-29T13:11:14;100553.38;;;31.20;47.81
11523;BME280;70090;43.208;27.904;2023-07-29T13:13:41;100543.03;;;31.39;48.04
11523;BME280;70090;43.208;27.904;2023-07-29T13:16:08;100545.63;;;31.42;48.01
11523;BME280;70090;43.208;27.904;2023-07-29T13:18:35;100550.00;;;31.76;49.02
11523;BME280;70090;43.208;27.904;2023-07-29T13:21:02;100543.19;;;32.06;49.10
11523;BME280;70090;43.208;27.904;2023-07-29T13:23:30;100552.84;;;32.55;48.96
11523;BME280;70090;43.208;27.904;2023-07-29T13:25:57;100544.75;;;32.75;46.97
11523;BME280;70090;43.208;27.904;2023-07-29T13:28:24;100535.53;;;32.93;45.62
11523;BME280;70090;43.208;27.904;2023-07-29T13:30:51;100535.16;;;33.13;46.34
11523;BME280;70090;43.208;27.904;2023-07-29T13:33:18;100541.56;;;33.25;45.54
11523;BME280;70090;43.208;27.904;2023-07-29T13:35:44;100536.34;;;33.29;44.85
11523;BME280;70090;43.208;27.904;2023-07-29T13:38:11;100537.59;;;33.63;44.35
11523;BME280;70090;43.208;27.904;2023-07-29T13:40:40;100534.84;;;33.81;44.05
11523;BME280;70090;43.208;27.904;2023-07-29T13:43:06;100538.50;;;34.00;43.88
11523;BME280;70090;43.208;27.904;2023-07-29T13:45:34;100536.38;;;34.06;43.83
11523;BME280;70090;43.208;27.904;2023-07-29T13:48:00;100537.44;;;34.03;44.52
11523;BME280;70090;43.208;27.904;2023-07-29T13:50:27;100532.19;;;34.07;43.44
11523;BME280;70090;43.208;27.904;2023-07-29T13:52:54;100537.78;;;34.18;43.44
11523;BME280;70090;43.208;27.904;2023-07-29T13:55:21;100540.53;;;34.29;42.23
11523;BME280;70090;43.208;27.904;2023-07-29T13:57:49;100531.81;;;34.22;41.43
11523;BME280;70090;43.208;27.904;2023-07-29T14:00:16;100529.69;;;34.22;41.96
11523;BME280;70090;43.208;27.904;2023-07-29T14:02:43;100526.16;;;34.35;42.05
11523;BME280;70090;43.208;27.904;2023-07-29T14:05:10;100523.47;;;34.42;42.04
11523;BME280;70090;43.208;27.904;2023-07-29T14:07:37;100527.72;;;34.36;41.59
11523;BME280;70090;43.208;27.904;2023-07-29T14:10:04;100519.47;;;34.51;41.22
11523;BME280;70090;43.208;27.904;2023-07-29T14:12:31;100522.31;;;34.69;40.14
11523;BME280;70090;43.208;27.904;2023-07-29T14:14:59;100521.00;;;34.88;39.79
11523;BME280;70090;43.208;27.904;2023-07-29T14:17:26;100527.50;;;34.89;38.25
11523;BME280;70090;43.208;27.904;2023-07-29T14:19:53;100523.56;;;34.92;39.27
11523;BME280;70090;43.208;27.904;2023-07-29T14:22:20;100518.44;;;35.03;39.90
11523;BME280;70090;43.208;27.904;2023-07-29T14:24:47;100516.38;;;35.17;39.31
11523;BME280;70090;43.208;27.904;2023-07-29T14:27:13;100518.88;;;35.26;40.04
11523;BME280;70090;43.208;27.904;2023-07-29T14:29:41;100521.56;;;34.87;39.93
11523;BME280;70090;43.208;27.904;2023-07-29T14:32:10;100516.69;;;34.82;40.99
11523;BME280;70090;43.208;27.904;2023-07-29T14:34:36;100520.72;;;34.55;40.89
11523;BME280;70090;43.208;27.904;2023-07-29T14:37:04;100518.13;;;34.33;41.80
11523;BME280;70090;43.208;27.904;2023-07-29T14:39:31;100520.78;;;34.07;47.70
11523;BME280;70090;43.208;27.904;2023-07-29T14:41:58;100516.78;;;33.68;52.67
11523;BME280;70090;43.208;27.904;2023-07-29T14:44:25;100510.28;;;33.43;54.35
11523;BME280;70090;43.208;27.904;2023-07-29T14:46:52;100517.88;;;33.35;55.48
11523;BME280;70090;43.208;27.904;2023-07-29T14:49:21;100513.88;;;33.14;56.13
11523;BME280;70090;43.208;27.904;2023-07-29T14:51:48;100512.91;;;33.06;56.76
11523;BME280;70090;43.208;27.904;2023-07-29T14:54:15;100518.03;;;33.13;56.30
11523;BME280;70090;43.208;27.904;2023-07-29T14:56:42;100516.44;;;33.23;56.06
11523;BME280;70090;43.208;27.904;2023-07-29T14:59:09;100513.50;;;32.99;54.89
11523;BME280;70090;43.208;27.904;2023-07-29T15:01:35;100516.72;;;32.79;57.27
11523;BME280;70090;43.208;27.904;2023-07-29T15:04:03;100514.75;;;32.63;57.09
11523;BME280;70090;43.208;27.904;2023-07-29T15:06:31;100516.59;;;32.55;57.16
11523;BME280;70090;43.208;27.904;2023-07-29T15:08:58;100527.31;;;32.38;57.49
11523;BME280;70090;43.208;27.904;2023-07-29T15:11:25;100527.94;;;31.98;58.77
11523;BME280;70090;43.208;27.904;2023-07-29T15:13:52;100533.16;;;31.83;59.45
11523;BME280;70090;43.208;27.904;2023-07-29T15:16:22;100527.00;;;31.58;61.41
11523;BME280;70090;43.208;27.904;2023-07-29T15:18:49;100525.44;;;31.46;62.57
11523;BME280;70090;43.208;27.904;2023-07-29T15:21:16;100526.25;;;31.24;65.46
11523;BME280;70090;43.208;27.904;2023-07-29T15:23:44;100527.28;;;31.21;65.53
11523;BME280;70090;43.208;27.904;2023-07-29T15:26:11;100529.88;;;31.30;66.12
11523;BME280;70090;43.208;27.904;2023-07-29T15:28:38;100533.72;;;31.33;66.84
11523;BME280;70090;43.208;27.904;2023-07-29T15:31:05;100528.28;;;31.29;66.63
11523;BME280;70090;43.208;27.904;2023-07-29T15:33:32;100529.56;;;31.39;66.43
11523;BME280;70090;43.208;27.904;2023-07-29T15:35:59;100531.09;;;31.13;68.35
11523;BME280;70090;43.208;27.904;2023-07-29T15:38:26;100531.38;;;31.09;69.01
11523;BME280;70090;43.208;27.904;2023-07-29T15:40:54;100528.03;;;31.22;68.85
11523;BME280;70090;43.208;27.904;2023-07-29T15:43:22;100539.94;;;31.15;69.19
11523;BME280;70090;43.208;27.904;2023-07-29T15:45:48;100536.81;;;31.35;68.91
11523;BME280;70090;43.208;27.904;2023-07-29T15:48:15;100535.81;;;31.27;68.90
11523;BME280;70090;43.208;27.904;2023-07-29T15:50:42;100545.09;;;31.33;68.81
11523;BME280;70090;43.208;27.904;2023-07-29T15:53:09;100551.31;;;31.37;69.00
11523;BME280;70090;43.208;27.904;2023-07-29T15:55:36;100548.97;;;31.41;69.11
11523;BME280;70090;43.208;27.904;2023-07-29T15:58:04;100543.56;;;31.32;69.68
11523;BME280;70090;43.208;27.904;2023-07-29T16:00:31;100547.69;;;31.20;70.39
11523;BME280;70090;43.208;27.904;2023-07-29T16:02:58;100544.00;;;30.92;71.20
11523;BME280;70090;43.208;27.904;2023-07-29T16:05:25;100551.63;;;30.47;73.52
11523;BME280;70090;43.208;27.904;2023-07-29T16:07:52;100557.13;;;30.09;76.03
11523;BME280;70090;43.208;27.904;2023-07-29T16:10:21;100555.19;;;29.89;77.56
11523;BME280;70090;43.208;27.904;2023-07-29T16:12:48;100552.16;;;29.62;79.31
11523;BME280;70090;43.208;27.904;2023-07-29T16:15:16;100564.63;;;29.44;80.39
11523;BME280;70090;43.208;27.904;2023-07-29T16:17:43;100561.13;;;29.24;81.84